sensor_id;sensor_type;location;lat;lon;timestamp;P1;durP1;ratioP1;P2;durP2;ratioP2
11135;SDS011;5622;50.840;4.948;2022-08-14T00:01:22;3.80;;;3.30;;
11135;SDS011;5622;50.840;4.948;2022-08-14T00:03:49;3.77;;;3.47;;
11135;SDS011;5622;50.840;4.948;2022-08-14T00:06:16;3.40;;;2.97;;
11135;SDS011;5622;50.840;4.948;2022-08-14T00:08:45;3.50;;;3.23;;
11135;SDS011;5622;50.840;4.948;2022-08-14T00:11:12;3.53;;;3.23;;
11135;SDS011;5622;50.840;4.948;2022-08-14T00:13:39;3.60;;;3.20;;
11135;SDS011;5622;50.840;4.948;2022-08-14T00:16:07;4.57;;;3.27;;
11135;SDS011;5622;50.840;4.948;2022-08-14T00:18:38;5.40;;;3.30;;
11135;SDS011;5622;50.840;4.948;2022-08-14T00:21:06;4.50;;;3.63;;
11135;SDS011;5622;50.840;4.948;2022-08-14T00:23:34;5.67;;;3.40;;
11135;SDS011;5622;50.840;4.948;2022-08-14T00:26:02;3.60;;;3.20;;
11135;SDS011;5622;50.840;4.948;2022-08-14T00:28:29;4.40;;;4.00;;
11135;SDS011;5622;50.840;4.948;2022-08-14T00:30:56;5.10;;;3.77;;
11135;SDS011;5622;50.840;4.948;2022-08-14T00:33:24;5.80;;;3.73;;
11135;SDS011;5622;50.840;4.948;2022-08-14T00:35:52;4.00;;;3.60;;
11135;SDS011;5622;50.840;4.948;2022-08-14T00:38:20;4.00;;;3.60;;
11135;SDS011;5622;50.840;4.948;2022-08-14T00:40:48;4.10;;;3.50;;
11135;SDS011;5622;50.840;4.948;2022-08-14T00:43:17;3.87;;;3.57;;
11135;SDS011;5622;50.840;4.948;2022-08-14T00:45:44;4.80;;;3.50;;
11135;SDS011;5622;50.840;4.948;2022-08-14T00:48:11;3.73;;;3.43;;
11135;SDS011;5622;50.840;4.948;2022-08-14T00:50:41;5.97;;;3.47;;
11135;SDS011;5622;50.840;4.948;2022-08-14T00:53:08;4.00;;;3.60;;
11135;SDS011;5622;50.840;4.948;2022-08-14T00:55:35;6.07;;;3.70;;
11135;SDS011;5622;50.840;4.948;2022-08-14T00:58:05;3.93;;;3.63;;
11135;SDS011;5622;50.840;4.948;2022-08-14T01:00:51;4.43;;;3.70;;
11135;SDS011;5622;50.840;4.948;2022-08-14T01:03:19;3.60;;;3.30;;
11135;SDS011;5622;50.840;4.948;2022-08-14T01:05:48;3.83;;;3.40;;
11135;SDS011;5622;50.840;4.948;2022-08-14T01:08:17;4.77;;;3.77;;
11135;SDS011;5622;50.840;4.948;2022-08-14T01:10:46;4.60;;;3.80;;
11135;SDS011;5622;50.840;4.948;2022-08-14T01:13:17;3.40;;;3.10;;
11135;SDS011;5622;50.840;4.948;2022-08-14T01:15:47;3.90;;;3.20;;
11135;SDS011;5622;50.840;4.948;2022-08-14T01:18:18;3.93;;;3.50;;
11135;SDS011;5622;50.840;4.948;2022-08-14T01:21:03;3.90;;;3.23;;
11135;SDS011;5622;50.840;4.948;2022-08-14T01:23:35;3.87;;;3.57;;
11135;SDS011;5622;50.840;4.948;2022-08-14T01:26:04;3.53;;;3.23;;
11135;SDS011;5622;50.840;4.948;2022-08-14T01:28:32;3.50;;;3.20;;
11135;SDS011;5622;50.840;4.948;2022-08-14T01:31:05;4.47;;;3.60;;
11135;SDS011;5622;50.840;4.948;2022-08-14T01:33:36;3.93;;;3.60;;
11135;SDS011;5622;50.840;4.948;2022-08-14T01:36:06;4.40;;;4.00;;
11135;SDS011;5622;50.840;4.948;2022-08-14T01:38:37;5.43;;;3.97;;
11135;SDS011;5622;50.840;4.948;2022-08-14T01:41:07;6.37;;;4.00;;
11135;SDS011;5622;50.840;4.948;2022-08-14T01:43:42;3.93;;;3.50;;
11135;SDS011;5622;50.840;4.948;2022-08-14T01:46:13;4.10;;;3.70;;
11135;SDS011;5622;50.840;4.948;2022-08-14T01:48:41;5.33;;;3.67;;
11135;SDS011;5622;50.840;4.948;2022-08-14T01:51:10;4.27;;;3.63;;
11135;SDS011;5622;50.840;4.948;2022-08-14T01:53:40;5.37;;;3.70;;
11135;SDS011;5622;50.840;4.948;2022-08-14T01:56:08;4.10;;;3.80;;
11135;SDS011;5622;50.840;4.948;2022-08-14T01:58:36;4.53;;;4.17;;
11135;SDS011;5622;50.840;4.948;2022-08-14T02:01:03;5.67;;;3.67;;
11135;SDS011;5622;50.840;4.948;2022-08-14T02:03:31;4.43;;;4.00;;
11135;SDS011;5622;50.840;4.948;2022-08-14T02:06:05;4.37;;;3.97;;
11135;SDS011;5622;50.840;4.948;2022-08-14T02:08:33;4.13;;;3.73;;
11135;SDS011;5622;50.840;4.948;2022-08-14T02:11:03;4.40;;;4.00;;
11135;SDS011;5622;50.840;4.948;2022-08-14T02:13:51;4.23;;;3.80;;
11135;SDS011;5622;50.840;4.948;2022-08-14T02:16:24;4.37;;;4.07;;
11135;SDS011;5622;50.840;4.948;2022-08-14T02:18:54;4.20;;;3.80;;
11135;SDS011;5622;50.840;4.948;2022-08-14T02:21:22;6.37;;;4.20;;
11135;SDS011;5622;50.840;4.948;2022-08-14T02:23:50;4.77;;;4.27;;
11135;SDS011;5622;50.840;4.948;2022-08-14T02:26:21;4.17;;;3.87;;
11135;SDS011;5622;50.840;4.948;2022-08-14T02:28:52;4.60;;;4.20;;
11135;SDS011;5622;50.840;4.948;2022-08-14T02:31:24;4.43;;;4.03;;
11135;SDS011;5622;50.840;4.948;2022-08-14T02:33:53;5.10;;;4.60;;
11135;SDS011;5622;50.840;4.948;2022-08-14T02:36:20;5.40;;;4.20;;
11135;SDS011;5622;50.840;4.948;2022-08-14T02:38:48;4.60;;;4.10;;
11135;SDS011;5622;50.840;4.948;2022-08-14T02:41:15;5.00;;;4.47;;
11135;SDS011;5622;50.840;4.948;2022-08-14T02:43:44;5.50;;;4.13;;
11135;SDS011;5622;50.840;4.948;2022-08-14T02:46:11;4.97;;;4.53;;
11135;SDS011;5622;50.840;4.948;2022-08-14T02:48:41;4.50;;;4.10;;
11135;SDS011;5622;50.840;4.948;2022-08-14T02:51:09;6.17;;;4.40;;
11135;SDS011;5622;50.840;4.948;2022-08-14T02:53:38;5.20;;;4.70;;
11135;SDS011;5622;50.840;4.948;2022-08-14T02:56:08;5.53;;;4.93;;
11135;SDS011;5622;50.840;4.948;2022-08-14T02:58:39;8.03;;;4.73;;
11135;SDS011;5622;50.840;4.948;2022-08-14T03:01:13;6.47;;;5.10;;
11135;SDS011;5622;50.840;4.948;2022-08-14T03:03:42;5.30;;;4.80;;
11135;SDS011;5622;50.840;4.948;2022-08-14T03:06:11;5.77;;;4.90;;
11135;SDS011;5622;50.840;4.948;2022-08-14T03:08:41;5.20;;;4.80;;
11135;SDS011;5622;50.840;4.948;2022-08-14T03:11:09;5.93;;;5.03;;
11135;SDS011;5622;50.840;4.948;2022-08-14T03:13:39;9.50;;;5.33;;
11135;SDS011;5622;50.840;4.948;2022-08-14T03:16:08;6.70;;;5.67;;
11135;SDS011;5622;50.840;4.948;2022-08-14T03:18:41;6.03;;;5.43;;
11135;SDS011;5622;50.840;4.948;2022-08-14T03:21:14;5.87;;;5.37;;
11135;SDS011;5622;50.840;4.948;2022-08-14T03:23:43;7.67;;;5.60;;
11135;SDS011;5622;50.840;4.948;2022-08-14T03:26:12;9.33;;;5.63;;
11135;SDS011;5622;50.840;4.948;2022-08-14T03:28:41;5.63;;;5.13;;
11135;SDS011;5622;50.840;4.948;2022-08-14T03:31:10;6.77;;;5.80;;
11135;SDS011;5622;50.840;4.948;2022-08-14T03:33:40;6.57;;;5.97;;
11135;SDS011;5622;50.840;4.948;2022-08-14T03:36:08;6.40;;;5.80;;
11135;SDS011;5622;50.840;4.948;2022-08-14T03:38:43;6.20;;;5.60;;
11135;SDS011;5622;50.840;4.948;2022-08-14T03:41:11;6.90;;;5.73;;
11135;SDS011;5622;50.840;4.948;2022-08-14T03:43:40;7.17;;;5.40;;
11135;SDS011;5622;50.840;4.948;2022-08-14T03:46:08;7.80;;;5.83;;
11135;SDS011;5622;50.840;4.948;2022-08-14T03:48:37;7.53;;;5.83;;
11135;SDS011;5622;50.840;4.948;2022-08-14T03:51:07;6.03;;;5.20;;
11135;SDS011;5622;50.840;4.948;2022-08-14T03:53:37;7.07;;;6.10;;
11135;SDS011;5622;50.840;4.948;2022-08-14T03:56:06;6.67;;;6.00;;
11135;SDS011;5622;50.840;4.948;2022-08-14T03:58:37;6.70;;;6.00;;
11135;SDS011;5622;50.840;4.948;2022-08-14T04:01:06;5.97;;;5.47;;
11135;SDS011;5622;50.840;4.948;2022-08-14T04:03:34;7.57;;;6.00;;
11135;SDS011;5622;50.840;4.948;2022-08-14T04:06:02;6.60;;;6.00;;
11135;SDS011;5622;50.840;4.948;2022-08-14T04:08:33;9.43;;;7.83;;
11135;SDS011;5622;50.840;4.948;2022-08-14T04:11:00;6.63;;;6.00;;
11135;SDS011;5622;50.840;4.948;2022-08-14T04:13:28;7.00;;;6.30;;
11135;SDS011;5622;50.840;4.948;2022-08-14T04:15:55;9.83;;;6.83;;
11135;SDS011;5622;50.840;4.948;2022-08-14T04:18:23;8.30;;;6.50;;
11135;SDS011;5622;50.840;4.948;2022-08-14T04:20:50;7.23;;;6.53;;
11135;SDS011;5622;50.840;4.948;2022-08-14T04:23:18;7.13;;;6.43;;
11135;SDS011;5622;50.840;4.948;2022-08-14T04:25:46;6.70;;;6.10;;
11135;SDS011;5622;50.840;4.948;2022-08-14T04:28:13;6.77;;;6.17;;
11135;SDS011;5622;50.840;4.948;2022-08-14T04:30:40;7.03;;;6.43;;
11135;SDS011;5622;50.840;4.948;2022-08-14T04:33:07;7.40;;;6.50;;
11135;SDS011;5622;50.840;4.948;2022-08-14T04:35:36;7.47;;;6.47;;
11135;SDS011;5622;50.840;4.948;2022-08-14T04:38:05;7.40;;;6.50;;
11135;SDS011;5622;50.840;4.948;2022-08-14T04:40:51;7.50;;;6.57;;
11135;SDS011;5622;50.840;4.948;2022-08-14T04:43:36;7.17;;;6.47;;
11135;SDS011;5622;50.840;4.948;2022-08-14T04:46:05;7.07;;;6.37;;
11135;SDS011;5622;50.840;4.948;2022-08-14T04:48:34;6.47;;;5.87;;
11135;SDS011;5622;50.840;4.948;2022-08-14T04:51:00;7.33;;;6.47;;
11135;SDS011;5622;50.840;4.948;2022-08-14T04:53:29;7.13;;;5.93;;
11135;SDS011;5622;50.840;4.948;2022-08-14T04:55:59;6.77;;;6.10;;
11135;SDS011;5622;50.840;4.948;2022-08-14T04:58:27;8.87;;;5.90;;
11135;SDS011;5622;50.840;4.948;2022-08-14T05:00:57;6.90;;;6.27;;
11135;SDS011;5622;50.840;4.948;2022-08-14T05:03:25;6.87;;;6.07;;
11135;SDS011;5622;50.840;4.948;2022-08-14T05:05:55;5.80;;;5.30;;
11135;SDS011;5622;50.840;4.948;2022-08-14T05:08:23;6.60;;;6.00;;
11135;SDS011;5622;50.840;4.948;2022-08-14T05:10:51;6.43;;;5.67;;
11135;SDS011;5622;50.840;4.948;2022-08-14T05:13:22;6.03;;;5.43;;
11135;SDS011;5622;50.840;4.948;2022-08-14T05:15:50;10.87;;;5.80;;
11135;SDS011;5622;50.840;4.948;2022-08-14T05:18:19;5.93;;;5.23;;
11135;SDS011;5622;50.840;4.948;2022-08-14T05:20:49;7.10;;;5.80;;
11135;SDS011;5622;50.840;4.948;2022-08-14T05:23:18;5.67;;;5.07;;
11135;SDS011;5622;50.840;4.948;2022-08-14T05:25:46;5.90;;;5.40;;
11135;SDS011;5622;50.840;4.948;2022-08-14T05:28:16;7.73;;;5.53;;
11135;SDS011;5622;50.840;4.948;2022-08-14T05:30:45;7.27;;;5.50;;
11135;SDS011;5622;50.840;4.948;2022-08-14T05:33:13;5.60;;;5.10;;
11135;SDS011;5622;50.840;4.948;2022-08-14T05:35:42;5.73;;;5.13;;
11135;SDS011;5622;50.840;4.948;2022-08-14T05:38:10;6.73;;;5.30;;
11135;SDS011;5622;50.840;4.948;2022-08-14T05:40:39;5.97;;;5.37;;
11135;SDS011;5622;50.840;4.948;2022-08-14T05:43:06;7.73;;;5.50;;
11135;SDS011;5622;50.840;4.948;2022-08-14T05:45:33;6.13;;;5.53;;
11135;SDS011;5622;50.840;4.948;2022-08-14T05:48:02;5.67;;;5.17;;
11135;SDS011;5622;50.840;4.948;2022-08-14T05:50:30;6.33;;;5.80;;
11135;SDS011;5622;50.840;4.948;2022-08-14T05:52:58;6.40;;;5.67;;
11135;SDS011;5622;50.840;4.948;2022-08-14T05:55:26;6.33;;;5.77;;
11135;SDS011;5622;50.840;4.948;2022-08-14T05:57:54;6.43;;;5.83;;
11135;SDS011;5622;50.840;4.948;2022-08-14T06:00:23;7.60;;;6.80;;
11135;SDS011;5622;50.840;4.948;2022-08-14T06:02:52;7.77;;;6.50;;
11135;SDS011;5622;50.840;4.948;2022-08-14T06:05:21;7.30;;;6.30;;
11135;SDS011;5622;50.840;4.948;2022-08-14T06:07:50;6.10;;;5.60;;
11135;SDS011;5622;50.840;4.948;2022-08-14T06:10:18;7.17;;;6.33;;
11135;SDS011;5622;50.840;4.948;2022-08-14T06:12:45;6.40;;;5.80;;
11135;SDS011;5622;50.840;4.948;2022-08-14T06:15:12;6.90;;;5.80;;
11135;SDS011;5622;50.840;4.948;2022-08-14T06:17:42;6.50;;;5.90;;
11135;SDS011;5622;50.840;4.948;2022-08-14T06:20:10;10.23;;;5.87;;
11135;SDS011;5622;50.840;4.948;2022-08-14T06:22:40;10.43;;;6.37;;
11135;SDS011;5622;50.840;4.948;2022-08-14T06:25:08;6.00;;;4.90;;
11135;SDS011;5622;50.840;4.948;2022-08-14T06:27:36;9.87;;;5.77;;
11135;SDS011;5622;50.840;4.948;2022-08-14T06:30:05;5.90;;;5.37;;
11135;SDS011;5622;50.840;4.948;2022-08-14T06:32:33;6.50;;;4.83;;
11135;SDS011;5622;50.840;4.948;2022-08-14T06:35:00;5.70;;;5.20;;
11135;SDS011;5622;50.840;4.948;2022-08-14T06:37:36;5.60;;;5.10;;
11135;SDS011;5622;50.840;4.948;2022-08-14T06:40:06;5.30;;;4.80;;
11135;SDS011;5622;50.840;4.948;2022-08-14T06:42:35;5.83;;;5.00;;
11135;SDS011;5622;50.840;4.948;2022-08-14T06:45:02;5.13;;;4.20;;
11135;SDS011;5622;50.840;4.948;2022-08-14T06:47:32;7.83;;;4.93;;
11135;SDS011;5622;50.840;4.948;2022-08-14T06:49:59;5.40;;;4.90;;
11135;SDS011;5622;50.840;4.948;2022-08-14T06:52:26;4.87;;;4.37;;
11135;SDS011;5622;50.840;4.948;2022-08-14T06:54:55;4.53;;;4.13;;
11135;SDS011;5622;50.840;4.948;2022-08-14T06:57:22;5.40;;;4.20;;
11135;SDS011;5622;50.840;4.948;2022-08-14T06:59:49;7.90;;;4.70;;
11135;SDS011;5622;50.840;4.948;2022-08-14T07:02:17;10.33;;;4.77;;
11135;SDS011;5622;50.840;4.948;2022-08-14T07:05:01;7.37;;;4.73;;
11135;SDS011;5622;50.840;4.948;2022-08-14T07:07:46;5.17;;;4.60;;
11135;SDS011;5622;50.840;4.948;2022-08-14T07:10:15;8.63;;;5.03;;
11135;SDS011;5622;50.840;4.948;2022-08-14T07:12:42;6.10;;;4.77;;
11135;SDS011;5622;50.840;4.948;2022-08-14T07:15:09;6.13;;;4.50;;
11135;SDS011;5622;50.840;4.948;2022-08-14T07:17:42;6.70;;;4.77;;
11135;SDS011;5622;50.840;4.948;2022-08-14T07:20:10;9.83;;;4.90;;
11135;SDS011;5622;50.840;4.948;2022-08-14T07:22:37;8.37;;;4.93;;
11135;SDS011;5622;50.840;4.948;2022-08-14T07:25:05;7.23;;;5.20;;
11135;SDS011;5622;50.840;4.948;2022-08-14T07:30:56;6.90;;;4.90;;
11135;SDS011;5622;50.840;4.948;2022-08-14T07:33:24;9.90;;;5.50;;
11135;SDS011;5622;50.840;4.948;2022-08-14T07:35:52;6.47;;;4.50;;
11135;SDS011;5622;50.840;4.948;2022-08-14T07:38:21;5.87;;;4.50;;
11135;SDS011;5622;50.840;4.948;2022-08-14T07:40:49;6.37;;;4.53;;
11135;SDS011;5622;50.840;4.948;2022-08-14T07:43:16;4.53;;;4.13;;
11135;SDS011;5622;50.840;4.948;2022-08-14T07:45:44;6.40;;;4.70;;
11135;SDS011;5622;50.840;4.948;2022-08-14T07:48:13;7.37;;;4.03;;
11135;SDS011;5622;50.840;4.948;2022-08-14T07:50:40;5.33;;;4.83;;
11135;SDS011;5622;50.840;4.948;2022-08-14T07:53:07;4.87;;;4.47;;
11135;SDS011;5622;50.840;4.948;2022-08-14T07:55:35;4.73;;;4.40;;
11135;SDS011;5622;50.840;4.948;2022-08-14T07:58:02;5.80;;;4.40;;
11135;SDS011;5622;50.840;4.948;2022-08-14T08:00:29;4.73;;;4.33;;
11135;SDS011;5622;50.840;4.948;2022-08-14T08:02:57;5.70;;;4.40;;
11135;SDS011;5622;50.840;4.948;2022-08-14T08:05:26;6.83;;;4.57;;
11135;SDS011;5622;50.840;4.948;2022-08-14T08:07:53;4.80;;;4.03;;
11135;SDS011;5622;50.840;4.948;2022-08-14T08:10:21;4.53;;;4.10;;
11135;SDS011;5622;50.840;4.948;2022-08-14T08:13:00;4.53;;;4.13;;
11135;SDS011;5622;50.840;4.948;2022-08-14T08:15:30;4.40;;;3.95;;
11135;SDS011;5622;50.840;4.948;2022-08-14T08:17:58;8.23;;;4.22;;
11135;SDS011;5622;50.840;4.948;2022-08-14T08:20:28;4.68;;;4.28;;
11135;SDS011;5622;50.840;4.948;2022-08-14T08:22:57;4.90;;;4.15;;
11135;SDS011;5622;50.840;4.948;2022-08-14T08:25:25;4.95;;;4.15;;
11135;SDS011;5622;50.840;4.948;2022-08-14T08:27:55;4.47;;;4.07;;
11135;SDS011;5622;50.840;4.948;2022-08-14T08:30:23;4.72;;;3.83;;
11135;SDS011;5622;50.840;4.948;2022-08-14T08:32:52;4.60;;;3.70;;
11135;SDS011;5622;50.840;4.948;2022-08-14T08:35:21;4.82;;;4.40;;
11135;SDS011;5622;50.840;4.948;2022-08-14T08:37:51;4.40;;;3.90;;
11135;SDS011;5622;50.840;4.948;2022-08-14T08:40:21;5.90;;;4.00;;
11135;SDS011;5622;50.840;4.948;2022-08-14T08:42:49;4.50;;;4.13;;
11135;SDS011;5622;50.840;4.948;2022-08-14T08:45:17;4.43;;;3.83;;
11135;SDS011;5622;50.840;4.948;2022-08-14T08:47:45;8.20;;;4.22;;
11135;SDS011;5622;50.840;4.948;2022-08-14T08:50:16;7.70;;;4.00;;
11135;SDS011;5622;50.840;4.948;2022-08-14T08:52:46;4.50;;;3.90;;
11135;SDS011;5622;50.840;4.948;2022-08-14T08:55:16;4.47;;;3.83;;
11135;SDS011;5622;50.840;4.948;2022-08-14T08:57:52;4.35;;;3.85;;
11135;SDS011;5622;50.840;4.948;2022-08-14T09:00:20;4.53;;;4.00;;
11135;SDS011;5622;50.840;4.948;2022-08-14T09:02:52;3.72;;;3.42;;
11135;SDS011;5622;50.840;4.948;2022-08-14T09:05:24;4.00;;;3.55;;
11135;SDS011;5622;50.840;4.948;2022-08-14T09:07:51;4.10;;;3.70;;
11135;SDS011;5622;50.840;4.948;2022-08-14T09:10:20;6.40;;;3.78;;
11135;SDS011;5622;50.840;4.948;2022-08-14T09:12:47;4.03;;;3.50;;
11135;SDS011;5622;50.840;4.948;2022-08-14T09:15:15;5.35;;;3.65;;
11135;SDS011;5622;50.840;4.948;2022-08-14T09:17:42;5.95;;;3.60;;
11135;SDS011;5622;50.840;4.948;2022-08-14T09:20:10;3.80;;;3.50;;
11135;SDS011;5622;50.840;4.948;2022-08-14T09:22:38;4.00;;;3.58;;
11135;SDS011;5622;50.840;4.948;2022-08-14T09:25:06;3.85;;;3.55;;
11135;SDS011;5622;50.840;4.948;2022-08-14T09:27:35;9.38;;;3.72;;
11135;SDS011;5622;50.840;4.948;2022-08-14T09:30:04;5.40;;;3.28;;
11135;SDS011;5622;50.840;4.948;2022-08-14T09:32:37;4.95;;;3.65;;
11135;SDS011;5622;50.840;4.948;2022-08-14T09:35:11;4.68;;;3.88;;
11135;SDS011;5622;50.840;4.948;2022-08-14T09:37:45;3.85;;;3.53;;
11135;SDS011;5622;50.840;4.948;2022-08-14T09:40:21;6.30;;;3.60;;
11135;SDS011;5622;50.840;4.948;2022-08-14T09:43:01;3.45;;;3.17;;
11135;SDS011;5622;50.840;4.948;2022-08-14T09:45:38;6.00;;;3.30;;
11135;SDS011;5622;50.840;4.948;2022-08-14T09:48:14;3.53;;;3.13;;
11135;SDS011;5622;50.840;4.948;2022-08-14T09:50:45;7.85;;;2.70;;
11135;SDS011;5622;50.840;4.948;2022-08-14T09:53:15;5.20;;;2.78;;
11135;SDS011;5622;50.840;4.948;2022-08-14T09:55:43;4.25;;;2.60;;
11135;SDS011;5622;50.840;4.948;2022-08-14T09:58:33;5.65;;;2.63;;
11135;SDS011;5622;50.840;4.948;2022-08-14T10:01:06;2.55;;;2.38;;
11135;SDS011;5622;50.840;4.948;2022-08-14T10:03:35;2.80;;;2.60;;
11135;SDS011;5622;50.840;4.948;2022-08-14T10:06:04;3.15;;;2.65;;
11135;SDS011;5622;50.840;4.948;2022-08-14T10:08:39;3.45;;;2.47;;
11135;SDS011;5622;50.840;4.948;2022-08-14T10:11:18;4.50;;;2.50;;
11135;SDS011;5622;50.840;4.948;2022-08-14T10:13:48;3.33;;;2.70;;
11135;SDS011;5622;50.840;4.948;2022-08-14T10:16:18;4.70;;;2.33;;
11135;SDS011;5622;50.840;4.948;2022-08-14T10:19:00;2.70;;;2.50;;
11135;SDS011;5622;50.840;4.948;2022-08-14T10:21:30;2.35;;;2.10;;
11135;SDS011;5622;50.840;4.948;2022-08-14T10:23:57;4.93;;;2.15;;
11135;SDS011;5622;50.840;4.948;2022-08-14T10:26:25;2.25;;;2.10;;
11135;SDS011;5622;50.840;4.948;2022-08-14T10:28:53;2.10;;;2.00;;
11135;SDS011;5622;50.840;4.948;2022-08-14T10:31:31;2.33;;;2.15;;
11135;SDS011;5622;50.840;4.948;2022-08-14T10:34:00;2.95;;;2.17;;
11135;SDS011;5622;50.840;4.948;2022-08-14T10:36:29;2.65;;;2.03;;
11135;SDS011;5622;50.840;4.948;2022-08-14T10:38:59;3.47;;;2.30;;
11135;SDS011;5622;50.840;4.948;2022-08-14T10:41:37;4.43;;;2.20;;
11135;SDS011;5622;50.840;4.948;2022-08-14T10:44:10;2.40;;;2.30;;
11135;SDS011;5622;50.840;4.948;2022-08-14T10:46:42;3.08;;;2.28;;
11135;SDS011;5622;50.840;4.948;2022-08-14T10:49:20;2.35;;;2.25;;
11135;SDS011;5622;50.840;4.948;2022-08-14T10:51:56;3.13;;;2.33;;
11135;SDS011;5622;50.840;4.948;2022-08-14T10:54:31;2.42;;;2.22;;
11135;SDS011;5622;50.840;4.948;2022-08-14T10:57:13;2.67;;;2.47;;
11135;SDS011;5622;50.840;4.948;2022-08-14T10:59:48;2.20;;;2.00;;
11135;SDS011;5622;50.840;4.948;2022-08-14T11:02:21;4.80;;;2.30;;
11135;SDS011;5622;50.840;4.948;2022-08-14T11:05:00;2.10;;;2.00;;
11135;SDS011;5622;50.840;4.948;2022-08-14T11:07:31;5.07;;;2.20;;
11135;SDS011;5622;50.840;4.948;2022-08-14T11:10:00;3.45;;;2.22;;
11135;SDS011;5622;50.840;4.948;2022-08-14T11:12:38;3.10;;;2.80;;
11135;SDS011;5622;50.840;4.948;2022-08-14T11:15:14;2.58;;;2.38;;
11135;SDS011;5622;50.840;4.948;2022-08-14T11:17:43;2.08;;;1.98;;
11135;SDS011;5622;50.840;4.948;2022-08-14T11:20:11;2.28;;;1.95;;
11135;SDS011;5622;50.840;4.948;2022-08-14T11:22:39;2.30;;;2.20;;
11135;SDS011;5622;50.840;4.948;2022-08-14T11:25:08;2.53;;;2.33;;
11135;SDS011;5622;50.840;4.948;2022-08-14T11:30:27;2.33;;;2.13;;
11135;SDS011;5622;50.840;4.948;2022-08-14T11:32:55;3.67;;;2.28;;
11135;SDS011;5622;50.840;4.948;2022-08-14T11:35:24;2.40;;;2.20;;
11135;SDS011;5622;50.840;4.948;2022-08-14T11:37:53;2.47;;;2.28;;
11135;SDS011;5622;50.840;4.948;2022-08-14T11:40:21;2.60;;;2.40;;
11135;SDS011;5622;50.840;4.948;2022-08-14T11:42:50;2.95;;;2.47;;
11135;SDS011;5622;50.840;4.948;2022-08-14T11:45:20;2.65;;;2.45;;
11135;SDS011;5622;50.840;4.948;2022-08-14T11:47:50;2.30;;;2.20;;
11135;SDS011;5622;50.840;4.948;2022-08-14T11:50:19;2.53;;;2.08;;
11135;SDS011;5622;50.840;4.948;2022-08-14T11:52:48;4.40;;;2.30;;
11135;SDS011;5622;50.840;4.948;2022-08-14T11:55:21;3.88;;;2.33;;
11135;SDS011;5622;50.840;4.948;2022-08-14T11:57:57;2.83;;;2.40;;
11135;SDS011;5622;50.840;4.948;2022-08-14T12:00:27;4.63;;;2.70;;
11135;SDS011;5622;50.840;4.948;2022-08-14T12:02:56;3.25;;;2.30;;
11135;SDS011;5622;50.840;4.948;2022-08-14T12:05:28;3.03;;;2.50;;
11135;SDS011;5622;50.840;4.948;2022-08-14T12:07:56;2.45;;;2.25;;
11135;SDS011;5622;50.840;4.948;2022-08-14T12:10:24;4.43;;;2.45;;
11135;SDS011;5622;50.840;4.948;2022-08-14T12:12:53;4.63;;;2.85;;
11135;SDS011;5622;50.840;4.948;2022-08-14T12:15:27;2.80;;;2.60;;
11135;SDS011;5622;50.840;4.948;2022-08-14T12:17:57;3.17;;;2.83;;
11135;SDS011;5622;50.840;4.948;2022-08-14T12:20:29;2.65;;;2.45;;
11135;SDS011;5622;50.840;4.948;2022-08-14T12:22:58;2.72;;;2.53;;
11135;SDS011;5622;50.840;4.948;2022-08-14T12:25:26;2.80;;;2.60;;
11135;SDS011;5622;50.840;4.948;2022-08-14T12:27:54;2.90;;;2.70;;
11135;SDS011;5622;50.840;4.948;2022-08-14T12:30:27;3.55;;;2.65;;
11135;SDS011;5622;50.840;4.948;2022-08-14T12:32:58;3.80;;;2.90;;
11135;SDS011;5622;50.840;4.948;2022-08-14T12:35:34;2.92;;;2.65;;
11135;SDS011;5622;50.840;4.948;2022-08-14T12:38:04;4.35;;;2.65;;
11135;SDS011;5622;50.840;4.948;2022-08-14T12:40:31;3.05;;;2.60;;
11135;SDS011;5622;50.840;4.948;2022-08-14T12:42:59;2.97;;;2.78;;
11135;SDS011;5622;50.840;4.948;2022-08-14T12:45:31;2.90;;;2.70;;
11135;SDS011;5622;50.840;4.948;2022-08-14T12:48:01;2.92;;;2.53;;
11135;SDS011;5622;50.840;4.948;2022-08-14T12:50:36;3.15;;;2.85;;
11135;SDS011;5622;50.840;4.948;2022-08-14T12:53:06;3.35;;;2.70;;
11135;SDS011;5622;50.840;4.948;2022-08-14T12:55:33;6.03;;;2.72;;
11135;SDS011;5622;50.840;4.948;2022-08-14T12:58:01;2.92;;;2.72;;
11135;SDS011;5622;50.840;4.948;2022-08-14T13:00:31;4.75;;;2.58;;
11135;SDS011;5622;50.840;4.948;2022-08-14T13:03:01;5.00;;;2.60;;
11135;SDS011;5622;50.840;4.948;2022-08-14T13:05:30;3.05;;;2.70;;
11135;SDS011;5622;50.840;4.948;2022-08-14T13:08:04;6.38;;;2.83;;
11135;SDS011;5622;50.840;4.948;2022-08-14T13:10:32;2.80;;;2.60;;
11135;SDS011;5622;50.840;4.948;2022-08-14T13:13:00;3.92;;;3.20;;
11135;SDS011;5622;50.840;4.948;2022-08-14T13:15:27;3.17;;;2.50;;
11135;SDS011;5622;50.840;4.948;2022-08-14T13:17:55;4.00;;;2.90;;
11135;SDS011;5622;50.840;4.948;2022-08-14T13:20:25;2.92;;;2.47;;
11135;SDS011;5622;50.840;4.948;2022-08-14T13:22:53;4.00;;;2.80;;
11135;SDS011;5622;50.840;4.948;2022-08-14T13:25:21;7.03;;;3.30;;
11135;SDS011;5622;50.840;4.948;2022-08-14T13:27:51;2.97;;;2.78;;
11135;SDS011;5622;50.840;4.948;2022-08-14T13:30:20;2.85;;;2.65;;
11135;SDS011;5622;50.840;4.948;2022-08-14T13:32:48;2.65;;;2.50;;
11135;SDS011;5622;50.840;4.948;2022-08-14T13:35:16;4.43;;;3.08;;
11135;SDS011;5622;50.840;4.948;2022-08-14T13:37:45;3.25;;;3.00;;
11135;SDS011;5622;50.840;4.948;2022-08-14T13:40:14;5.40;;;3.15;;
11135;SDS011;5622;50.840;4.948;2022-08-14T13:42:43;3.50;;;2.63;;
11135;SDS011;5622;50.840;4.948;2022-08-14T13:45:12;2.97;;;2.75;;
11135;SDS011;5622;50.840;4.948;2022-08-14T13:47:40;3.33;;;2.53;;
11135;SDS011;5622;50.840;4.948;2022-08-14T13:50:09;2.95;;;2.75;;
11135;SDS011;5622;50.840;4.948;2022-08-14T13:52:39;3.38;;;3.03;;
11135;SDS011;5622;50.840;4.948;2022-08-14T13:55:10;3.08;;;2.88;;
11135;SDS011;5622;50.840;4.948;2022-08-14T13:57:38;2.80;;;2.60;;
11135;SDS011;5622;50.840;4.948;2022-08-14T14:00:09;2.75;;;2.55;;
11135;SDS011;5622;50.840;4.948;2022-08-14T14:02:38;3.05;;;2.85;;
11135;SDS011;5622;50.840;4.948;2022-08-14T14:05:06;2.85;;;2.60;;
11135;SDS011;5622;50.840;4.948;2022-08-14T14:07:34;3.10;;;2.80;;
11135;SDS011;5622;50.840;4.948;2022-08-14T14:10:03;3.20;;;2.90;;
11135;SDS011;5622;50.840;4.948;2022-08-14T14:12:35;3.17;;;2.70;;
11135;SDS011;5622;50.840;4.948;2022-08-14T14:15:03;2.88;;;2.67;;
11135;SDS011;5622;50.840;4.948;2022-08-14T14:17:31;4.50;;;3.00;;
11135;SDS011;5622;50.840;4.948;2022-08-14T14:20:02;3.10;;;2.90;;
11135;SDS011;5622;50.840;4.948;2022-08-14T14:22:30;3.10;;;2.88;;
11135;SDS011;5622;50.840;4.948;2022-08-14T14:24:57;3.05;;;2.85;;
11135;SDS011;5622;50.840;4.948;2022-08-14T14:27:25;3.50;;;3.20;;
11135;SDS011;5622;50.840;4.948;2022-08-14T14:29:56;3.88;;;2.92;;
11135;SDS011;5622;50.840;4.948;2022-08-14T14:32:28;2.90;;;2.70;;
11135;SDS011;5622;50.840;4.948;2022-08-14T14:34:57;2.80;;;2.60;;
11135;SDS011;5622;50.840;4.948;2022-08-14T14:37:29;2.70;;;2.50;;
11135;SDS011;5622;50.840;4.948;2022-08-14T14:39:58;2.75;;;2.55;;
11135;SDS011;5622;50.840;4.948;2022-08-14T14:42:26;2.90;;;2.70;;
11135;SDS011;5622;50.840;4.948;2022-08-14T14:45:01;3.00;;;2.80;;
11135;SDS011;5622;50.840;4.948;2022-08-14T14:47:31;4.15;;;2.90;;
11135;SDS011;5622;50.840;4.948;2022-08-14T14:49:59;4.68;;;2.97;;
11135;SDS011;5622;50.840;4.948;2022-08-14T14:52:28;3.00;;;2.80;;
11135;SDS011;5622;50.840;4.948;2022-08-14T14:54:56;2.90;;;2.60;;
11135;SDS011;5622;50.840;4.948;2022-08-14T14:57:25;3.10;;;2.90;;
11135;SDS011;5622;50.840;4.948;2022-08-14T14:59:53;3.25;;;2.97;;
11135;SDS011;5622;50.840;4.948;2022-08-14T15:02:25;3.20;;;2.67;;
11135;SDS011;5622;50.840;4.948;2022-08-14T15:04:59;3.05;;;2.78;;
11135;SDS011;5622;50.840;4.948;2022-08-14T15:07:27;3.20;;;2.90;;
11135;SDS011;5622;50.840;4.948;2022-08-14T15:09:56;3.38;;;3.08;;
11135;SDS011;5622;50.840;4.948;2022-08-14T15:12:23;3.13;;;2.90;;
11135;SDS011;5622;50.840;4.948;2022-08-14T15:14:50;4.30;;;2.88;;
11135;SDS011;5622;50.840;4.948;2022-08-14T15:17:18;2.75;;;2.58;;
11135;SDS011;5622;50.840;4.948;2022-08-14T15:19:48;2.70;;;2.50;;
11135;SDS011;5622;50.840;4.948;2022-08-14T15:22:15;3.30;;;3.00;;